sensor_id;sensor_type;location;lat;lon;timestamp;pressure;altitude;pressure_sealevel;temperature;humidity
47524;BME280;33253;42.144;25.884;2023-01-28T00:02:20;99795.78;;;2.02;100.00
47524;BME280;33253;42.144;25.884;2023-01-28T00:04:45;99804.13;;;2.00;100.00
47524;BME280;33253;42.144;25.884;2023-01-28T00:07:11;99803.34;;;2.01;100.00
47524;BME280;33253;42.144;25.884;2023-01-28T00:09:36;99805.19;;;2.03;100.00
47524;BME280;33253;42.144;25.884;2023-01-28T00:12:04;99808.50;;;2.02;100.00
47524;BME280;33253;42.144;25.884;2023-01-28T00:14:29;99812.63;;;2.00;100.00
47524;BME280;33253;42.144;25.884;2023-01-28T00:16:56;99813.59;;;2.02;100.00
47524;BME280;33253;42.144;25.884;2023-01-28T00:19:21;99816.25;;;2.04;100.00
47524;BME280;33253;42.144;25.884;2023-01-28T00:21:48;99810.66;;;2.09;100.00
47524;BME280;33253;42.144;25.884;2023-01-28T00:24:13;99815.38;;;2.03;100.00
47524;BME280;33253;42.144;25.884;2023-01-28T00:26:39;99819.94;;;2.09;100.00
47524;BME280;33253;42.144;25.884;2023-01-28T00:29:05;99810.28;;;2.03;100.00
47524;BME280;33253;42.144;25.884;2023-01-28T00:31:31;99810.28;;;2.03;100.00
47524;BME280;33253;42.144;25.884;2023-01-28T00:33:56;99822.19;;;2.04;100.00
47524;BME280;33253;42.144;25.884;2023-01-28T00:36:23;99821.53;;;2.07;100.00
47524;BME280;33253;42.144;25.884;2023-01-28T00:38:54;99825.56;;;2.03;100.00
47524;BME280;33253;42.144;25.884;2023-01-28T00:41:22;99811.56;;;1.97;100.00
47524;BME280;33253;42.144;25.884;2023-01-28T00:43:48;99823.50;;;1.98;100.00
47524;BME280;33253;42.144;25.884;2023-01-28T00:46:14;99835.16;;;1.94;100.00
47524;BME280;33253;42.144;25.884;2023-01-28T00:48:41;99840.34;;;1.96;100.00
47524;BME280;33253;42.144;25.884;2023-01-28T00:51:08;99838.78;;;1.98;100.00
47524;BME280;33253;42.144;25.884;2023-01-28T00:53:35;99826.75;;;1.95;100.00
47524;BME280;33253;42.144;25.884;2023-01-28T00:56:02;99832.69;;;1.96;100.00
47524;BME280;33253;42.144;25.884;2023-01-28T00:58:28;99850.03;;;2.01;100.00
47524;BME280;33253;42.144;25.884;2023-01-28T01:00:53;99799.31;;;1.76;100.00
47524;BME280;33253;42.144;25.884;2023-01-28T01:03:19;99844.78;;;1.98;100.00
47524;BME280;33253;42.144;25.884;2023-01-28T01:05:44;99851.47;;;2.11;100.00
47524;BME280;33253;42.144;25.884;2023-01-28T01:08:10;99856.94;;;2.17;100.00
47524;BME280;33253;42.144;25.884;2023-01-28T01:10:37;99844.91;;;2.15;100.00
47524;BME280;33253;42.144;25.884;2023-01-28T01:13:03;99786.06;;;1.82;100.00
47524;BME280;33253;42.144;25.884;2023-01-28T01:15:29;99861.13;;;2.17;100.00
47524;BME280;33253;42.144;25.884;2023-01-28T01:17:55;99860.75;;;2.10;100.00
47524;BME280;33253;42.144;25.884;2023-01-28T01:20:24;99869.38;;;2.13;100.00
47524;BME280;33253;42.144;25.884;2023-01-28T01:22:50;99863.75;;;2.03;100.00
47524;BME280;33253;42.144;25.884;2023-01-28T01:25:16;99861.38;;;2.06;100.00
47524;BME280;33253;42.144;25.884;2023-01-28T01:27:43;99861.28;;;2.05;100.00
47524;BME280;33253;42.144;25.884;2023-01-28T01:30:11;99868.47;;;1.97;100.00
47524;BME280;33253;42.144;25.884;2023-01-28T01:32:37;99875.31;;;1.98;100.00
47524;BME280;33253;42.144;25.884;2023-01-28T01:35:04;99873.81;;;2.02;100.00
47524;BME280;33253;42.144;25.884;2023-01-28T01:37:35;99872.28;;;1.90;100.00
47524;BME280;33253;42.144;25.884;2023-01-28T01:40:03;99876.78;;;1.94;100.00
47524;BME280;33253;42.144;25.884;2023-01-28T01:42:31;99865.72;;;1.81;100.00
47524;BME280;33253;42.144;25.884;2023-01-28T01:45:05;99885.13;;;1.92;100.00
47524;BME280;33253;42.144;25.884;2023-01-28T01:50:30;99894.03;;;1.72;100.00
47524;BME280;33253;42.144;25.884;2023-01-28T01:53:02;99892.38;;;1.72;100.00
47524;BME280;33253;42.144;25.884;2023-01-28T01:55:30;99895.41;;;1.67;100.00
47524;BME280;33253;42.144;25.884;2023-01-28T01:57:59;99891.59;;;1.73;100.00
47524;BME280;33253;42.144;25.884;2023-01-28T02:00:26;99882.78;;;1.68;100.00
47524;BME280;33253;42.144;25.884;2023-01-28T02:02:52;99888.06;;;1.71;100.00
47524;BME280;33253;42.144;25.884;2023-01-28T02:05:20;99887.00;;;1.68;100.00
47524;BME280;33253;42.144;25.884;2023-01-28T02:07:49;99893.94;;;1.70;100.00
47524;BME280;33253;42.144;25.884;2023-01-28T02:10:16;99891.91;;;1.65;100.00
47524;BME280;33253;42.144;25.884;2023-01-28T02:12:52;99904.03;;;1.55;100.00
47524;BME280;33253;42.144;25.884;2023-01-28T02:15:22;99889.53;;;1.54;100.00
47524;BME280;33253;42.144;25.884;2023-01-28T02:17:49;99896.78;;;1.61;100.00
47524;BME280;33253;42.144;25.884;2023-01-28T02:20:22;99896.69;;;1.60;100.00
47524;BME280;33253;42.144;25.884;2023-01-28T02:23:06;99905.28;;;1.75;100.00
47524;BME280;33253;42.144;25.884;2023-01-28T02:28:51;99913.22;;;1.80;100.00
47524;BME280;33253;42.144;25.884;2023-01-28T02:33:49;99912.44;;;1.68;100.00
47524;BME280;33253;42.144;25.884;2023-01-28T02:36:31;99920.84;;;1.53;100.00
47524;BME280;33253;42.144;25.884;2023-01-28T02:39:04;99919.50;;;1.45;100.00
47524;BME280;33253;42.144;25.884;2023-01-28T02:41:37;99919.06;;;1.25;100.00
47524;BME280;33253;42.144;25.884;2023-01-28T02:44:04;99920.53;;;1.22;100.00
47524;BME280;33253;42.144;25.884;2023-01-28T03:00:43;99936.88;;;1.25;100.00
47524;BME280;33253;42.144;25.884;2023-01-28T03:03:21;99932.47;;;1.23;100.00
47524;BME280;33253;42.144;25.884;2023-01-28T03:05:52;99934.44;;;1.13;100.00
47524;BME280;33253;42.144;25.884;2023-01-28T03:08:38;99935.38;;;1.16;100.00
47524;BME280;33253;42.144;25.884;2023-01-28T03:11:23;99938.69;;;1.15;100.00
47524;BME280;33253;42.144;25.884;2023-01-28T03:14:07;99917.56;;;1.02;100.00
47524;BME280;33253;42.144;25.884;2023-01-28T03:16:53;99934.91;;;1.21;100.00
47524;BME280;33253;42.144;25.884;2023-01-28T03:19:39;99937.94;;;1.16;100.00
47524;BME280;33253;42.144;25.884;2023-01-28T03:22:24;99928.94;;;1.07;100.00
47524;BME280;33253;42.144;25.884;2023-01-28T03:25:11;99940.06;;;1.09;100.00
47524;BME280;33253;42.144;25.884;2023-01-28T03:28:02;99940.06;;;1.09;100.00
47524;BME280;33253;42.144;25.884;2023-01-28T03:33:36;99943.22;;;1.19;100.00
47524;BME280;33253;42.144;25.884;2023-01-28T03:36:20;99953.03;;;1.26;100.00
47524;BME280;33253;42.144;25.884;2023-01-28T03:39:04;99946.66;;;1.19;100.00
47524;BME280;33253;42.144;25.884;2023-01-28T03:41:29;99959.75;;;1.25;100.00
47524;BME280;33253;42.144;25.884;2023-01-28T03:43:55;99920.09;;;1.02;100.00
47524;BME280;33253;42.144;25.884;2023-01-28T03:46:20;99959.00;;;1.26;100.00
47524;BME280;33253;42.144;25.884;2023-01-28T03:48:46;99947.31;;;1.17;100.00
47524;BME280;33253;42.144;25.884;2023-01-28T03:51:11;99958.63;;;1.34;100.00
47524;BME280;33253;42.144;25.884;2023-01-28T03:53:38;99955.03;;;1.18;100.00
47524;BME280;33253;42.144;25.884;2023-01-28T03:56:04;99966.31;;;1.22;100.00
47524;BME280;33253;42.144;25.884;2023-01-28T03:58:30;99913.66;;;0.94;100.00
47524;BME280;33253;42.144;25.884;2023-01-28T04:01:17;99961.50;;;1.13;100.00
47524;BME280;33253;42.144;25.884;2023-01-28T04:03:43;99968.72;;;1.07;100.00
47524;BME280;33253;42.144;25.884;2023-01-28T04:06:08;99977.53;;;1.12;100.00
47524;BME280;33253;42.144;25.884;2023-01-28T04:08:34;99974.78;;;1.09;100.00
47524;BME280;33253;42.144;25.884;2023-01-28T04:11:00;99982.81;;;1.15;100.00
47524;BME280;33253;42.144;25.884;2023-01-28T04:13:42;99982.50;;;1.10;100.00
47524;BME280;33253;42.144;25.884;2023-01-28T04:16:09;99974.00;;;1.10;100.00
47524;BME280;33253;42.144;25.884;2023-01-28T04:18:35;99980.69;;;1.21;100.00
47524;BME280;33253;42.144;25.884;2023-01-28T04:21:00;99984.63;;;1.43;100.00
47524;BME280;33253;42.144;25.884;2023-01-28T04:23:25;99983.19;;;1.47;100.00
47524;BME280;33253;42.144;25.884;2023-01-28T04:25:51;99982.47;;;1.36;100.00
47524;BME280;33253;42.144;25.884;2023-01-28T04:28:16;99985.09;;;1.24;100.00
47524;BME280;33253;42.144;25.884;2023-01-28T04:30:42;99983.13;;;1.20;100.00
47524;BME280;33253;42.144;25.884;2023-01-28T04:33:07;99988.63;;;1.01;100.00
47524;BME280;33253;42.144;25.884;2023-01-28T04:35:33;99942.31;;;0.66;100.00
47524;BME280;33253;42.144;25.884;2023-01-28T04:37:58;99986.34;;;0.92;100.00
47524;BME280;33253;42.144;25.884;2023-01-28T04:40:24;99994.88;;;0.92;100.00
47524;BME280;33253;42.144;25.884;2023-01-28T04:42:56;99987.94;;;0.90;100.00
47524;BME280;33253;42.144;25.884;2023-01-28T04:45:21;100003.94;;;0.89;100.00
47524;BME280;33253;42.144;25.884;2023-01-28T04:47:47;99930.22;;;0.50;100.00
47524;BME280;33253;42.144;25.884;2023-01-28T04:50:13;100007.09;;;0.98;100.00
47524;BME280;33253;42.144;25.884;2023-01-28T04:52:39;99946.91;;;0.72;100.00
47524;BME280;33253;42.144;25.884;2023-01-28T04:55:05;99999.53;;;1.11;100.00
47524;BME280;33253;42.144;25.884;2023-01-28T04:57:30;100008.75;;;1.23;100.00
47524;BME280;33253;42.144;25.884;2023-01-28T04:59:56;100019.84;;;1.37;100.00
47524;BME280;33253;42.144;25.884;2023-01-28T05:02:21;100017.78;;;1.44;100.00
47524;BME280;33253;42.144;25.884;2023-01-28T05:04:47;99964.53;;;1.21;100.00
47524;BME280;33253;42.144;25.884;2023-01-28T05:07:12;100017.91;;;1.46;100.00
47524;BME280;33253;42.144;25.884;2023-01-28T05:09:37;99990.28;;;1.25;100.00
47524;BME280;33253;42.144;25.884;2023-01-28T05:12:03;100032.78;;;1.53;100.00
47524;BME280;33253;42.144;25.884;2023-01-28T05:14:29;100022.72;;;1.55;100.00
47524;BME280;33253;42.144;25.884;2023-01-28T05:16:54;100033.59;;;1.52;100.00
47524;BME280;33253;42.144;25.884;2023-01-28T05:19:20;100026.31;;;1.45;100.00
47524;BME280;33253;42.144;25.884;2023-01-28T05:21:45;100037.75;;;1.38;100.00
47524;BME280;33253;42.144;25.884;2023-01-28T05:24:10;100022.59;;;1.40;100.00
47524;BME280;33253;42.144;25.884;2023-01-28T05:26:36;100034.28;;;1.50;100.00
47524;BME280;33253;42.144;25.884;2023-01-28T05:29:02;100035.59;;;1.44;100.00
47524;BME280;33253;42.144;25.884;2023-01-28T05:31:28;100038.53;;;1.37;100.00
47524;BME280;33253;42.144;25.884;2023-01-28T05:33:53;100045.69;;;1.43;100.00
47524;BME280;33253;42.144;25.884;2023-01-28T05:36:19;100041.97;;;1.38;100.00
47524;BME280;33253;42.144;25.884;2023-01-28T05:38:44;100047.53;;;1.45;100.00
47524;BME280;33253;42.144;25.884;2023-01-28T05:41:10;100034.53;;;1.41;100.00
47524;BME280;33253;42.144;25.884;2023-01-28T05:43:36;100046.28;;;1.39;100.00
47524;BME280;33253;42.144;25.884;2023-01-28T05:46:01;100018.25;;;1.25;100.00
47524;BME280;33253;42.144;25.884;2023-01-28T05:48:27;100060.06;;;1.42;100.00
47524;BME280;33253;42.144;25.884;2023-01-28T05:50:52;100056.34;;;1.37;100.00
47524;BME280;33253;42.144;25.884;2023-01-28T05:53:18;100049.75;;;1.27;100.00
47524;BME280;33253;42.144;25.884;2023-01-28T05:55:47;100062.88;;;1.34;100.00
47524;BME280;33253;42.144;25.884;2023-01-28T05:58:14;100071.69;;;1.39;100.00
47524;BME280;33253;42.144;25.884;2023-01-28T06:00:40;100081.97;;;1.40;100.00
47524;BME280;33253;42.144;25.884;2023-01-28T06:03:05;100062.78;;;1.32;100.00
47524;BME280;33253;42.144;25.884;2023-01-28T06:05:31;100079.38;;;1.52;100.00
47524;BME280;33253;42.144;25.884;2023-01-28T06:07:56;100073.41;;;1.52;100.00
47524;BME280;33253;42.144;25.884;2023-01-28T06:10:21;100075.38;;;1.56;100.00
47524;BME280;33253;42.144;25.884;2023-01-28T06:12:47;100055.75;;;1.41;100.00
47524;BME280;33253;42.144;25.884;2023-01-28T06:15:13;100070.06;;;1.53;100.00
47524;BME280;33253;42.144;25.884;2023-01-28T06:17:38;100079.34;;;1.39;100.00
47524;BME280;33253;42.144;25.884;2023-01-28T06:20:04;100098.91;;;1.40;100.00
47524;BME280;33253;42.144;25.884;2023-01-28T06:22:30;100098.31;;;1.44;100.00
47524;BME280;33253;42.144;25.884;2023-01-28T06:24:55;100057.28;;;1.26;100.00
47524;BME280;33253;42.144;25.884;2023-01-28T06:27:20;100096.19;;;1.50;100.00
47524;BME280;33253;42.144;25.884;2023-01-28T06:29:46;100106.31;;;1.62;100.00
47524;BME280;33253;42.144;25.884;2023-01-28T06:32:11;100003.34;;;1.05;100.00
47524;BME280;33253;42.144;25.884;2023-01-28T06:34:37;100103.59;;;1.72;100.00
47524;BME280;33253;42.144;25.884;2023-01-28T06:37:03;100121.06;;;1.80;100.00
47524;BME280;33253;42.144;25.884;2023-01-28T06:39:29;100113.69;;;1.84;100.00
47524;BME280;33253;42.144;25.884;2023-01-28T06:41:57;100123.19;;;1.87;100.00
47524;BME280;33253;42.144;25.884;2023-01-28T06:44:22;100110.78;;;1.91;100.00
47524;BME280;33253;42.144;25.884;2023-01-28T06:46:48;100124.13;;;2.01;100.00
47524;BME280;33253;42.144;25.884;2023-01-28T06:49:13;100129.41;;;2.04;100.00
47524;BME280;33253;42.144;25.884;2023-01-28T06:51:39;100137.25;;;2.07;100.00
47524;BME280;33253;42.144;25.884;2023-01-28T06:54:04;100130.31;;;2.18;100.00
47524;BME280;33253;42.144;25.884;2023-01-28T06:56:30;100102.78;;;1.99;100.00
47524;BME280;33253;42.144;25.884;2023-01-28T06:58:55;100125.22;;;2.18;100.00
47524;BME280;33253;42.144;25.884;2023-01-28T07:01:21;100137.56;;;2.25;100.00
47524;BME280;33253;42.144;25.884;2023-01-28T07:03:48;100153.06;;;2.28;100.00
47524;BME280;33253;42.144;25.884;2023-01-28T07:06:13;100109.66;;;2.13;100.00
47524;BME280;33253;42.144;25.884;2023-01-28T07:08:39;100117.66;;;2.19;100.00
47524;BME280;33253;42.144;25.884;2023-01-28T07:11:06;100157.34;;;2.29;100.00
47524;BME280;33253;42.144;25.884;2023-01-28T07:13:31;100150.00;;;2.34;100.00
47524;BME280;33253;42.144;25.884;2023-01-28T07:15:57;100150.00;;;2.34;100.00
47524;BME280;33253;42.144;25.884;2023-01-28T07:18:23;100114.84;;;2.15;100.00
47524;BME280;33253;42.144;25.884;2023-01-28T07:20:48;100146.78;;;2.36;100.00
47524;BME280;33253;42.144;25.884;2023-01-28T07:23:13;100160.53;;;2.52;100.00
47524;BME280;33253;42.144;25.884;2023-01-28T07:25:39;100168.56;;;2.58;100.00
47524;BME280;33253;42.144;25.884;2023-01-28T07:28:04;100168.34;;;2.68;100.00
47524;BME280;33253;42.144;25.884;2023-01-28T07:30:30;100162.94;;;2.50;100.00
47524;BME280;33253;42.144;25.884;2023-01-28T07:32:57;100168.34;;;2.55;100.00
47524;BME280;33253;42.144;25.884;2023-01-28T07:35:24;100171.19;;;2.59;100.00
47524;BME280;33253;42.144;25.884;2023-01-28T07:37:51;100159.72;;;2.53;100.00
47524;BME280;33253;42.144;25.884;2023-01-28T07:40:17;100166.09;;;2.59;100.00
47524;BME280;33253;42.144;25.884;2023-01-28T07:42:43;100163.94;;;2.66;100.00
47524;BME280;33253;42.144;25.884;2023-01-28T07:45:08;100174.41;;;2.70;100.00
47524;BME280;33253;42.144;25.884;2023-01-28T07:47:34;100172.25;;;2.77;100.00
47524;BME280;33253;42.144;25.884;2023-01-28T07:49:59;100170.59;;;2.77;100.00
47524;BME280;33253;42.144;25.884;2023-01-28T07:52:26;100168.75;;;2.74;100.00
47524;BME280;33253;42.144;25.884;2023-01-28T07:54:53;100195.00;;;2.87;100.00
47524;BME280;33253;42.144;25.884;2023-01-28T07:57:19;100199.13;;;2.85;100.00
47524;BME280;33253;42.144;25.884;2023-01-28T07:59:51;100192.47;;;2.87;100.00
47524;BME280;33253;42.144;25.884;2023-01-28T08:02:17;100162.56;;;2.57;100.00
47524;BME280;33253;42.144;25.884;2023-01-28T08:04:43;100208.53;;;2.86;100.00
47524;BME280;33253;42.144;25.884;2023-01-28T08:07:08;100202.53;;;2.99;100.00
47524;BME280;33253;42.144;25.884;2023-01-28T08:09:34;100210.00;;;3.09;100.00
47524;BME280;33253;42.144;25.884;2023-01-28T08:12:02;100205.94;;;3.13;100.00
47524;BME280;33253;42.144;25.884;2023-01-28T08:14:29;100221.47;;;3.16;100.00
47524;BME280;33253;42.144;25.884;2023-01-28T08:16:55;100218.31;;;3.20;100.00
47524;BME280;33253;42.144;25.884;2023-01-28T08:19:21;100224.78;;;3.15;100.00
47524;BME280;33253;42.144;25.884;2023-01-28T08:21:46;100183.03;;;2.86;100.00
47524;BME280;33253;42.144;25.884;2023-01-28T08:24:12;100225.41;;;3.11;100.00
47524;BME280;33253;42.144;25.884;2023-01-28T08:26:38;100224.69;;;3.13;100.00
47524;BME280;33253;42.144;25.884;2023-01-28T08:29:03;100236.75;;;3.16;100.00
47524;BME280;33253;42.144;25.884;2023-01-28T08:31:30;100235.09;;;3.16;100.00
47524;BME280;33253;42.144;25.884;2023-01-28T08:33:55;100236.75;;;3.16;100.00
47524;BME280;33253;42.144;25.884;2023-01-28T08:36:21;100231.56;;;3.14;100.00
47524;BME280;33253;42.144;25.884;2023-01-28T08:39:06;100242.34;;;3.10;100.00
47524;BME280;33253;42.144;25.884;2023-01-28T08:41:32;100224.41;;;3.08;100.00
47524;BME280;33253;42.144;25.884;2023-01-28T08:43:57;100197.56;;;2.87;100.00
47524;BME280;33253;42.144;25.884;2023-01-28T08:46:25;100235.59;;;3.11;100.00
47524;BME280;33253;42.144;25.884;2023-01-28T08:48:51;100238.13;;;3.24;100.00
47524;BME280;33253;42.144;25.884;2023-01-28T08:51:18;100241.84;;;3.29;100.00
47524;BME280;33253;42.144;25.884;2023-01-28T08:53:44;100239.78;;;3.37;100.00
47524;BME280;33253;42.144;25.884;2023-01-28T08:56:09;100243.94;;;3.50;100.00
47524;BME280;33253;42.144;25.884;2023-01-28T08:58:35;100238.16;;;3.52;100.00
47524;BME280;33253;42.144;25.884;2023-01-28T09:01:04;100243.22;;;3.66;100.00
47524;BME280;33253;42.144;25.884;2023-01-28T09:03:30;100219.66;;;3.42;100.00
47524;BME280;33253;42.144;25.884;2023-01-28T09:06:00;100248.34;;;3.66;100.00
47524;BME280;33253;42.144;25.884;2023-01-28T09:08:27;100238.28;;;3.54;100.00
47524;BME280;33253;42.144;25.884;2023-01-28T09:10:56;100204.91;;;3.37;100.00
47524;BME280;33253;42.144;25.884;2023-01-28T09:13:22;100243.44;;;3.69;100.00
47524;BME280;33253;42.144;25.884;2023-01-28T09:15:47;100242.13;;;3.76;100.00
47524;BME280;33253;42.144;25.884;2023-01-28T09:18:13;100243.59;;;3.72;100.00
47524;BME280;33253;42.144;25.884;2023-01-28T09:20:39;100229.31;;;3.61;100.00
47524;BME280;33253;42.144;25.884;2023-01-28T09:23:05;100241.41;;;3.78;100.00
47524;BME280;33253;42.144;25.884;2023-01-28T09:25:31;100235.63;;;3.81;100.00
47524;BME280;33253;42.144;25.884;2023-01-28T09:27:57;100231.03;;;3.75;100.00
47524;BME280;33253;42.144;25.884;2023-01-28T09:30:23;100227.34;;;3.85;100.00
47524;BME280;33253;42.144;25.884;2023-01-28T09:32:49;100217.50;;;3.91;100.00
47524;BME280;33253;42.144;25.884;2023-01-28T09:35:15;100209.03;;;3.92;100.00
47524;BME280;33253;42.144;25.884;2023-01-28T09:37:42;100227.56;;;4.03;100.00
47524;BME280;33253;42.144;25.884;2023-01-28T09:40:34;100225.38;;;4.09;100.00
47524;BME280;33253;42.144;25.884;2023-01-28T09:45:53;100220.59;;;4.00;100.00
47524;BME280;33253;42.144;25.884;2023-01-28T09:48:22;100227.81;;;3.93;100.00
47524;BME280;33253;42.144;25.884;2023-01-28T09:50:53;100231.75;;;3.87;100.00
47524;BME280;33253;42.144;25.884;2023-01-28T09:53:20;100230.25;;;3.91;100.00
47524;BME280;33253;42.144;25.884;2023-01-28T09:55:50;100235.03;;;4.00;100.00
47524;BME280;33253;42.144;25.884;2023-01-28T09:58:18;100229.41;;;4.05;100.00
47524;BME280;33253;42.144;25.884;2023-01-28T10:00:56;100215.06;;;4.08;100.00
47524;BME280;33253;42.144;25.884;2023-01-28T10:09:18;100220.72;;;4.17;100.00
47524;BME280;33253;42.144;25.884;2023-01-28T10:12:07;100219.13;;;4.19;100.00
47524;BME280;33253;42.144;25.884;2023-01-28T10:17:15;100217.38;;;4.18;100.00
47524;BME280;33253;42.144;25.884;2023-01-28T10:19:55;100179.47;;;3.96;100.00
47524;BME280;33253;42.144;25.884;2023-01-28T10:22:27;100187.56;;;4.03;100.00
47524;BME280;33253;42.144;25.884;2023-01-28T10:24:56;100224.34;;;4.35;100.00
47524;BME280;33253;42.144;25.884;2023-01-28T10:27:25;100223.91;;;4.43;100.00
47524;BME280;33253;42.144;25.884;2023-01-28T10:29:52;100225.31;;;4.37;100.00
47524;BME280;33253;42.144;25.884;2023-01-28T10:32:32;100221.69;;;4.34;100.00
47524;BME280;33253;42.144;25.884;2023-01-28T10:34:59;100217.38;;;4.18;100.00
47524;BME280;33253;42.144;25.884;2023-01-28T10:37:26;100221.69;;;4.19;100.00
47524;BME280;33253;42.144;25.884;2023-01-28T10:39:57;100211.34;;;4.17;100.00
47524;BME280;33253;42.144;25.884;2023-01-28T10:42:33;100229.44;;;4.20;100.00
47524;BME280;33253;42.144;25.884;2023-01-28T10:45:18;100231.03;;;4.33;100.00
47524;BME280;33253;42.144;25.884;2023-01-28T10:50:30;100220.28;;;4.24;100.00
47524;BME280;33253;42.144;25.884;2023-01-28T10:55:26;100191.44;;;3.97;100.00
47524;BME280;33253;42.144;25.884;2023-01-28T10:57:53;100227.25;;;4.27;100.00
47524;BME280;33253;42.144;25.884;2023-01-28T11:02:46;100229.09;;;4.29;100.00
47524;BME280;33253;42.144;25.884;2023-01-28T11:05:27;100244.78;;;4.35;100.00
47524;BME280;33253;42.144;25.884;2023-01-28T11:08:14;100237.19;;;4.37;100.00
47524;BME280;33253;42.144;25.884;2023-01-28T11:10:40;100231.66;;;4.44;100.00
47524;BME280;33253;42.144;25.884;2023-01-28T11:18:25;100219.94;;;4.33;100.00
47524;BME280;33253;42.144;25.884;2023-01-28T11:20:56;100235.97;;;4.45;100.00
47524;BME280;33253;42.144;25.884;2023-01-28T11:23:25;100223.00;;;4.27;100.00
47524;BME280;33253;42.144;25.884;2023-01-28T11:26:00;100224.97;;;4.46;100.00
47524;BME280;33253;42.144;25.884;2023-01-28T11:28:27;100191.38;;;4.25;100.00
47524;BME280;33253;42.144;25.884;2023-01-28T11:30:55;100189.19;;;4.16;100.00
47524;BME280;33253;42.144;25.884;2023-01-28T11:38:35;100235.97;;;4.15;100.00
47524;BME280;33253;42.144;25.884;2023-01-28T11:41:13;100232.84;;;4.06;100.00
47524;BME280;33253;42.144;25.884;2023-01-28T11:43:40;100231.25;;;3.93;100.00
47524;BME280;33253;42.144;25.884;2023-01-28T11:54:58;100243.88;;;4.05;100.00
47524;BME280;33253;42.144;25.884;2023-01-28T11:57:51;100200.66;;;3.80;100.00
47524;BME280;33253;42.144;25.884;2023-01-28T12:20:27;100248.13;;;4.64;100.00
47524;BME280;33253;42.144;25.884;2023-01-28T12:41:32;100263.19;;;4.60;100.00
47524;BME280;33253;42.144;25.884;2023-01-28T12:44:27;100274.25;;;4.59;100.00
47524;BME280;33253;42.144;25.884;2023-01-28T12:47:02;100275.03;;;4.58;100.00
47524;BME280;33253;42.144;25.884;2023-01-28T12:49:39;100282.97;;;4.62;100.00
47524;BME280;33253;42.144;25.884;2023-01-28T12:52:31;100280.75;;;4.68;100.00
47524;BME280;33253;42.144;25.884;2023-01-28T12:55:02;100282.28;;;4.80;100.00
47524;BME280;33253;42.144;25.884;2023-01-28T12:57:31;100257.91;;;4.72;100.00
47524;BME280;33253;42.144;25.884;2023-01-28T13:02:34;100297.84;;;4.99;100.00
47524;BME280;33253;42.144;25.884;2023-01-28T13:05:20;100300.31;;;4.98;100.00
47524;BME280;33253;42.144;25.884;2023-01-28T13:08:09;100289.31;;;4.84;100.00
47524;BME280;33253;42.144;25.884;2023-01-28T13:10:43;100299.91;;;4.90;100.00
47524;BME280;33253;42.144;25.884;2023-01-28T13:15:43;100292.66;;;4.68;100.00
47524;BME280;33253;42.144;25.884;2023-01-28T13:18:33;100311.63;;;4.72;100.00
47524;BME280;33253;42.144;25.884;2023-01-28T13:21:00;100316.38;;;4.65;100.00
47524;BME280;33253;42.144;25.884;2023-01-28T13:28:44;100312.94;;;4.50;100.00
47524;BME280;33253;42.144;25.884;2023-01-28T13:31:11;100328.44;;;4.53;100.00
47524;BME280;33253;42.144;25.884;2023-01-28T13:34:08;100318.72;;;4.47;100.00
47524;BME280;33253;42.144;25.884;2023-01-28T13:36:44;100330.84;;;4.50;100.00
47524;BME280;33253;42.144;25.884;2023-01-28T13:41:42;100328.44;;;4.53;100.00
47524;BME280;33253;42.144;25.884;2023-01-28T13:46:43;100333.75;;;4.56;100.00
47524;BME280;33253;42.144;25.884;2023-01-28T13:49:13;100336.41;;;4.58;100.00
47524;BME280;33253;42.144;25.884;2023-01-28T13:51:46;100315.84;;;4.41;100.00
47524;BME280;33253;42.144;25.884;2023-01-28T13:54:20;100312.94;;;4.35;100.00
47524;BME280;33253;42.144;25.884;2023-01-28T13:59:46;100342.47;;;4.60;100.00
47524;BME280;33253;42.144;25.884;2023-01-28T14:05:17;100347.00;;;4.64;100.00
47524;BME280;33253;42.144;25.884;2023-01-28T14:07:54;100339.56;;;4.68;100.00
47524;BME280;33253;42.144;25.884;2023-01-28T14:10:35;100344.78;;;4.70;100.00
47524;BME280;33253;42.144;25.884;2023-01-28T14:16:19;100354.38;;;4.59;100.00
47524;BME280;33253;42.144;25.884;2023-01-28T14:18:47;100359.50;;;4.59;100.00
47524;BME280;33253;42.144;25.884;2023-01-28T14:21:16;100348.91;;;4.53;100.00
47524;BME280;33253;42.144;25.884;2023-01-28T14:23:46;100355.00;;;4.55;100.00
47524;BME280;33253;42.144;25.884;2023-01-28T14:28:49;100356.50;;;4.51;100.00
47524;BME280;33253;42.144;25.884;2023-01-28T14:31:27;100360.13;;;4.55;100.00
47524;BME280;33253;42.144;25.884;2023-01-28T14:36:30;100297.59;;;4.07;100.00
47524;BME280;33253;42.144;25.884;2023-01-28T14:39:29;100365.94;;;4.52;100.00
47524;BME280;33253;42.144;25.884;2023-01-28T14:41:59;100372.69;;;4.52;100.00
47524;BME280;33253;42.144;25.884;2023-01-28T14:44:29;100377.22;;;4.56;100.00
47524;BME280;33253;42.144;25.884;2023-01-28T14:55:55;100373.72;;;4.69;100.00
47524;BME280;33253;42.144;25.884;2023-01-28T14:58:32;100380.38;;;4.67;100.00
47524;BME280;33253;42.144;25.884;2023-01-28T15:01:00;100345.19;;;4.48;100.00
47524;BME280;33253;42.144;25.884;2023-01-28T15:03:27;100383.38;;;4.60;100.00
47524;BME280;33253;42.144;25.884;2023-01-28T15:06:11;100381.34;;;4.54;100.00
47524;BME280;33253;42.144;25.884;2023-01-28T15:08:38;100383.72;;;4.51;100.00
47524;BME280;33253;42.144;25.884;2023-01-28T15:11:08;100373.31;;;4.48;100.00
47524;BME280;33253;42.144;25.884;2023-01-28T15:13:40;100373.31;;;4.48;100.00
47524;BME280;33253;42.144;25.884;2023-01-28T15:16:17;100342.31;;;4.28;100.00